Meteorología y climatología de Navarra
Datos de la estación - Meteo Navarra

Estación de Carcastillo (La Oliva) GN

Altitud 343 m.


Datos desde el 10/10/2019 hasta el 11/10/2019 en horario solar
Los datos son PROVISIONALES

Anterior Página 1 de 1 Siguiente Descargar: Formato para Excel 2000 o superior   Formato csv   Formato para OpenOffice Calc
Fecha Temperatura Humedad relativa Radiación global Insolación Precipitación Vel. viento 10 m Vel. viento 10 m Dir. viento 10 m
ºC % W/m² s l/m² m/s km/h º
10/10/2019 0:00 10.3 82 0.0 0 0.0 1.7 6.1 240
10/10/2019 0:10 10.1 84 0.0 0 0.0 1.9 6.8 242
10/10/2019 0:20 10.0 84 0.0 0 0.0 2.7 9.7 242
10/10/2019 0:30 9.9 84 0.0 0 0.0 1.9 7.0 254
10/10/2019 0:40 9.9 85 0.0 0 0.0 0.9 3.3 242
10/10/2019 0:50 9.7 85 0.0 0 0.0 2.1 7.4 243
10/10/2019 1:00 9.5 85 0.0 0 0.0 2.3 8.3 258
10/10/2019 1:10 9.5 85 0.0 0 0.0 2.2 7.7 263
10/10/2019 1:20 9.3 85 0.0 0 0.0 2.5 9.0 252
10/10/2019 1:30 9.1 86 0.0 0 0.0 2.6 9.3 247
10/10/2019 1:40 9.2 87 0.0 0 0.0 1.7 6.2 245
10/10/2019 1:50 9.2 86 0.0 0 0.0 1.2 4.4 224
10/10/2019 2:00 9.0 87 0.0 0 0.0 2.0 7.0 245
10/10/2019 2:10 9.2 87 0.0 0 0.0 2.1 7.5 253
10/10/2019 2:20 9.3 87 0.0 0 0.0 2.5 8.9 255
10/10/2019 2:30 9.4 86 0.0 0 0.0 2.3 8.1 262
10/10/2019 2:40 9.5 86 0.0 0 0.0 2.2 7.8 265
10/10/2019 2:50 9.7 86 0.0 0 0.0 2.3 8.4 279
10/10/2019 3:00 10.1 84 0.0 0 0.0 2.8 10.0 266
10/10/2019 3:10 10.0 84 0.0 0 0.0 2.9 10.4 263
10/10/2019 3:20 10.2 83 0.0 0 0.0 2.6 9.5 261
10/10/2019 3:30 9.9 83 0.0 0 0.0 2.2 7.8 254
10/10/2019 3:40 9.4 85 0.0 0 0.0 2.3 8.4 256
10/10/2019 3:50 9.3 86 0.0 0 0.0 2.5 9.1 258
10/10/2019 4:00 9.2 87 0.0 0 0.0 2.6 9.5 255
10/10/2019 4:10 9.0 87 0.0 0 0.0 2.4 8.5 256
10/10/2019 4:20 9.0 87 0.0 0 0.0 1.7 6.3 254
10/10/2019 4:30 8.5 87 0.0 0 0.0 1.8 6.6 256
10/10/2019 4:40 8.5 88 0.0 0 0.0 2.6 9.4 247
10/10/2019 4:50 8.5 88 0.0 0 0.0 2.9 10.4 254
10/10/2019 5:00 8.4 88 0.0 0 0.0 2.9 10.3 249
10/10/2019 5:10 8.3 88 0.0 0 0.0 2.6 9.4 247
10/10/2019 5:20 8.2 88 0.0 0 0.0 2.4 8.7 258
10/10/2019 5:30 8.1 89 0.0 0 0.0 2.5 9.1 262
10/10/2019 5:40 8.2 89 0.0 0 0.0 2.8 10.1 258
10/10/2019 5:50 7.9 89 0.0 0 0.0 2.8 10.0 250
10/10/2019 6:00 7.9 89 0.0 0 0.0 2.7 9.7 254
10/10/2019 6:10 7.9 90 0.0 0 0.0 2.4 8.6 249
10/10/2019 6:20 7.8 90 0.0 0 0.0 2.6 9.5 250
10/10/2019 6:30 8.1 90 5.6 0 0.0 2.3 8.1 259
10/10/2019 6:40 8.2 90 34.6 426 0.0 2.3 8.1 247
10/10/2019 6:50 8.3 89 58.1 600 0.0 2.4 8.8 245
10/10/2019 7:00 8.8 89 83.3 600 0.0 2.5 8.9 259
10/10/2019 7:10 9.2 87 111.9 600 0.0 2.5 8.9 258
10/10/2019 7:20 9.7 85 140.7 600 0.0 1.8 6.6 261
10/10/2019 7:30 10.1 83 170.7 600 0.0 2.0 7.2 262
10/10/2019 7:40 10.4 82 201.9 600 0.0 2.2 8.0 264
10/10/2019 7:50 10.9 80 233.9 600 0.0 2.1 7.4 258
10/10/2019 8:00 11.4 78 264.8 600 0.0 2.3 8.3 271
10/10/2019 8:10 11.7 77 297.2 600 0.0 1.8 6.5 272
10/10/2019 8:20 12.0 75 327.4 600 0.0 1.7 6.2 253
10/10/2019 8:30 12.3 74 356.3 600 0.0 1.3 4.8 250
10/10/2019 8:40 12.6 73 383.4 600 0.0 1.0 3.7 264
10/10/2019 8:50 13.1 72 411.1 600 0.0 1.0 3.6 258
10/10/2019 9:00 13.6 70 436.9 600 0.0 0.8 2.7 277
10/10/2019 9:10 13.9 69 463.2 600 0.0 0.7 2.4 267
10/10/2019 9:20 14.4 68 489.0 600 0.0 1.0 3.6 269
10/10/2019 9:30 14.8 67 514.1 600 0.0 1.2 4.4 283
10/10/2019 9:40 15.1 66 537.3 600 0.0 1.5 5.5 270
10/10/2019 9:50 15.6 64 558.5 600 0.0 1.7 6.2 281
10/10/2019 10:00 15.8 62 578.1 600 0.0 1.5 5.4 282
10/10/2019 10:10 16.5 59 598.5 600 0.0 2.5 9.1 269
10/10/2019 10:20 16.8 58 616.0 600 0.0 2.4 8.5 287
10/10/2019 10:30 17.0 55 631.1 600 0.0 2.0 7.2 305
10/10/2019 10:40 17.4 54 645.2 600 0.0 1.2 4.2 282
10/10/2019 10:50 17.8 53 658.5 600 0.0 1.5 5.3 274
10/10/2019 11:00 18.2 51 669.4 600 0.0 0.9 3.4 261
10/10/2019 11:10 18.8 50 677.5 600 0.0 1.3 4.8 286
10/10/2019 11:20 18.9 49 685.7 600 0.0 1.2 4.4 249
10/10/2019 11:30 19.2 48 689.1 600 0.0 1.5 5.3 284
10/10/2019 11:40 19.2 48 695.7 600 0.0 1.7 5.9 278
10/10/2019 11:50 19.6 45 698.1 600 0.0 0.8 2.9 251
10/10/2019 12:00 20.0 45 695.0 600 0.0 0.8 3.0 297
10/10/2019 12:10 19.9 45 695.2 600 0.0 1.4 5.0 298
10/10/2019 12:20 20.3 44 689.5 600 0.0 0.9 3.2 251
10/10/2019 12:30 20.8 43 685.9 600 0.0 1.5 5.2 283
10/10/2019 12:40 20.9 42 678.1 600 0.0 0.8 2.9 256
10/10/2019 12:50 21.3 41 668.7 600 0.0 1.0 3.6 273
10/10/2019 13:00 21.4 41 661.8 600 0.0 1.7 6.2 276
10/10/2019 13:10 21.6 40 652.0 600 0.0 1.1 4.0 231
10/10/2019 13:20 21.9 39 637.3 600 0.0 1.0 3.5 208
10/10/2019 13:30 22.4 38 623.7 600 0.0 1.1 4.0 223
10/10/2019 13:40 22.4 38 608.9 600 0.0 0.5 1.6 168
10/10/2019 13:50 22.5 37 587.7 600 0.0 0.8 3.0 253
10/10/2019 14:00 22.5 37 567.1 600 0.0 1.5 5.3 286
10/10/2019 14:10 22.6 37 549.5 600 0.0 0.4 1.4 60
10/10/2019 14:20 22.7 35 528.0 600 0.0 1.1 3.9 246
10/10/2019 14:30 22.9 36 504.1 600 0.0 0.8 2.7 127
10/10/2019 14:40 23.3 35 481.1 600 0.0 0.6 2.2 278
10/10/2019 14:50 23.3 34 455.0 600 0.0 0.5 1.8 246
10/10/2019 15:00 23.6 34 428.6 600 0.0 0.7 2.3 170
10/10/2019 15:10 23.6 33 399.0 600 0.0 0.5 1.8 239
10/10/2019 15:20 23.9 32 366.2 600 0.0 1.1 3.8 219
10/10/2019 15:30 23.8 32 336.9 600 0.0 0.9 3.4 215
10/10/2019 15:40 23.9 31 306.5 600 0.0 0.9 3.2 235
10/10/2019 15:50 23.9 31 278.1 600 0.0 1.2 4.2 251
10/10/2019 16:00 23.6 31 247.3 600 0.0 0.9 3.3 284
10/10/2019 16:10 23.6 31 214.8 600 0.0 0.4 1.5 291
10/10/2019 16:20 23.7 31 182.8 600 0.0 0.5 1.8 276
10/10/2019 16:30 23.6 32 151.3 600 0.0 0.9 3.1 249
10/10/2019 16:40 23.4 32 121.2 600 0.0 0.7 2.6 267
10/10/2019 16:50 23.3 33 92.1 600 0.0 0.7 2.5 285
10/10/2019 17:00 23.1 35 65.6 600 0.0 0.2 0.9 277
10/10/2019 17:10 22.5 40 39.5 524 0.0 0.0 0.0 0
10/10/2019 17:20 21.9 42 12.6 0 0.0 0.0 0.0 0
10/10/2019 17:30 21.2 45 0.0 0 0.0 0.0 0.0 0
10/10/2019 17:40 20.3 46 0.0 0 0.0 0.2 0.6 201
10/10/2019 17:50 19.3 48 0.0 0 0.0 0.5 1.8 153
10/10/2019 18:00 18.3 50 0.0 0 0.0 0.4 1.6 145
10/10/2019 18:10 17.5 54 0.0 0 0.0 0.6 2.1 163
10/10/2019 18:20 16.8 53 0.0 0 0.0 0.2 0.8 157
10/10/2019 18:30 16.1 56 0.0 0 0.0 0.1 0.3 128
10/10/2019 18:40 15.5 57 0.0 0 0.0 0.3 1.1 124
10/10/2019 18:50 14.9 59 0.0 0 0.0 0.4 1.4 113
10/10/2019 19:00 14.2 61 0.0 0 0.0 2.1 7.7 101
10/10/2019 19:10 14.2 57 0.0 0 0.0 1.7 6.0 115
10/10/2019 19:20 13.7 61 0.0 0 0.0 1.4 5.0 114
10/10/2019 19:30 13.2 63 0.0 0 0.0 1.4 5.0 107
10/10/2019 19:40 13.3 62 0.0 0 0.0 1.9 6.9 114
10/10/2019 19:50 13.4 62 0.0 0 0.0 2.4 8.5 96
10/10/2019 20:00 13.3 62 0.0 0 0.0 1.7 6.0 112
10/10/2019 20:10 13.1 61 0.0 0 0.0 1.8 6.5 102
10/10/2019 20:20 12.5 65 0.0 0 0.0 1.6 5.7 101
10/10/2019 20:30 12.1 66 0.0 0 0.0 1.8 6.5 104
10/10/2019 20:40 11.7 68 0.0 0 0.0 1.4 5.1 119
10/10/2019 20:50 11.8 66 0.0 0 0.0 1.5 5.3 114
10/10/2019 21:00 11.7 68 0.0 0 0.0 1.3 4.8 109
10/10/2019 21:10 11.4 70 0.0 0 0.0 1.7 6.2 106
10/10/2019 21:20 11.1 71 0.0 0 0.0 1.6 5.8 104
10/10/2019 21:30 10.9 71 0.0 0 0.0 1.9 6.7 108
10/10/2019 21:40 11.1 68 0.0 0 0.0 2.3 8.3 113
10/10/2019 21:50 11.2 67 0.0 0 0.0 2.7 9.5 120
10/10/2019 22:00 11.1 67 0.0 0 0.0 2.7 9.9 119
10/10/2019 22:10 11.1 66 0.0 0 0.0 3.1 11.2 118
10/10/2019 22:20 10.9 68 0.0 0 0.0 2.3 8.4 124
10/10/2019 22:30 11.1 68 0.0 0 0.0 2.5 9.0 117
10/10/2019 22:40 11.1 67 0.0 0 0.0 2.5 9.1 118
10/10/2019 22:50 11.2 67 0.0 0 0.0 2.6 9.3 121
10/10/2019 23:00 11.2 67 0.0 0 0.0 2.3 8.1 122
10/10/2019 23:10 10.9 67 0.0 0 0.0 3.0 10.8 119
10/10/2019 23:20 10.7 67 0.0 0 0.0 2.6 9.3 108
10/10/2019 23:30 10.9 68 0.0 0 0.0 2.4 8.5 108
10/10/2019 23:40 11.2 68 0.0 0 0.0 2.4 8.7 109
10/10/2019 23:50 11.2 67 0.0 0 0.0 2.2 8.0 117
Anterior Página 1 de 1 Siguiente

NOTA: Tipo de datos según el color:
   - Valores diarios o 10 minutos correctos
   - Valores diarios calculados a partir de un número de datos 10 minutos menor que 144 y mayor que 120, o de un número de datos semihorarios menor que 48 y mayor que 40 (caso de las estaciones de Riegos de Navarra y del MARM)
   - Valores diez minutos estimados


Contacto        Enlaces        Aviso legal